sensor_id;sensor_type;location;lat;lon;timestamp;P1;durP1;ratioP1;P2;durP2;ratioP2
16039;SDS011;8124;48.634;8.120;2024-02-16T00:00:24;41.47;;;35.63;;
16039;SDS011;8124;48.634;8.120;2024-02-16T00:05:29;43.33;;;35.60;;
16039;SDS011;8124;48.634;8.120;2024-02-16T00:10:31;43.35;;;36.17;;
16039;SDS011;8124;48.634;8.120;2024-02-16T00:15:34;43.15;;;35.88;;
16039;SDS011;8124;48.634;8.120;2024-02-16T00:20:41;42.35;;;35.72;;
16039;SDS011;8124;48.634;8.120;2024-02-16T00:25:44;43.45;;;35.88;;
16039;SDS011;8124;48.634;8.120;2024-02-16T00:30:47;41.58;;;35.60;;
16039;SDS011;8124;48.634;8.120;2024-02-16T00:35:51;43.17;;;36.13;;
16039;SDS011;8124;48.634;8.120;2024-02-16T00:40:54;41.30;;;35.38;;
16039;SDS011;8124;48.634;8.120;2024-02-16T00:45:57;41.95;;;36.53;;
16039;SDS011;8124;48.634;8.120;2024-02-16T00:51:02;43.80;;;35.67;;
16039;SDS011;8124;48.634;8.120;2024-02-16T00:56:06;44.08;;;36.53;;
16039;SDS011;8124;48.634;8.120;2024-02-16T01:01:10;42.35;;;36.30;;
16039;SDS011;8124;48.634;8.120;2024-02-16T01:06:15;42.50;;;36.28;;
16039;SDS011;8124;48.634;8.120;2024-02-16T01:11:18;42.45;;;35.53;;
16039;SDS011;8124;48.634;8.120;2024-02-16T01:16:21;40.95;;;35.63;;
16039;SDS011;8124;48.634;8.120;2024-02-16T01:21:26;41.33;;;35.50;;
16039;SDS011;8124;48.634;8.120;2024-02-16T01:26:30;41.88;;;34.83;;
16039;SDS011;8124;48.634;8.120;2024-02-16T01:31:34;41.72;;;34.80;;
16039;SDS011;8124;48.634;8.120;2024-02-16T01:36:39;41.03;;;35.03;;
16039;SDS011;8124;48.634;8.120;2024-02-16T01:41:42;40.70;;;35.13;;
16039;SDS011;8124;48.634;8.120;2024-02-16T01:46:45;43.25;;;35.53;;
16039;SDS011;8124;48.634;8.120;2024-02-16T01:51:50;42.30;;;35.50;;
16039;SDS011;8124;48.634;8.120;2024-02-16T01:56:53;41.05;;;35.15;;
16039;SDS011;8124;48.634;8.120;2024-02-16T02:01:57;41.85;;;35.55;;
16039;SDS011;8124;48.634;8.120;2024-02-16T02:07:01;43.63;;;36.30;;
16039;SDS011;8124;48.634;8.120;2024-02-16T02:12:13;41.47;;;34.90;;
16039;SDS011;8124;48.634;8.120;2024-02-16T02:17:17;41.03;;;34.90;;
16039;SDS011;8124;48.634;8.120;2024-02-16T02:22:22;41.13;;;35.17;;
16039;SDS011;8124;48.634;8.120;2024-02-16T02:27:25;41.50;;;35.17;;
16039;SDS011;8124;48.634;8.120;2024-02-16T02:32:28;42.40;;;35.92;;
16039;SDS011;8124;48.634;8.120;2024-02-16T02:37:35;43.00;;;35.75;;
16039;SDS011;8124;48.634;8.120;2024-02-16T02:42:38;42.50;;;35.45;;
16039;SDS011;8124;48.634;8.120;2024-02-16T02:47:41;41.15;;;35.42;;
16039;SDS011;8124;48.634;8.120;2024-02-16T02:52:46;41.42;;;35.45;;
16039;SDS011;8124;48.634;8.120;2024-02-16T02:57:49;41.53;;;35.25;;
16039;SDS011;8124;48.634;8.120;2024-02-16T03:02:52;41.25;;;35.50;;
16039;SDS011;8124;48.634;8.120;2024-02-16T03:07:56;42.55;;;35.40;;
16039;SDS011;8124;48.634;8.120;2024-02-16T03:13:02;41.65;;;35.75;;
16039;SDS011;8124;48.634;8.120;2024-02-16T03:18:06;41.95;;;35.55;;
16039;SDS011;8124;48.634;8.120;2024-02-16T03:23:12;43.97;;;35.92;;
16039;SDS011;8124;48.634;8.120;2024-02-16T03:28:15;42.15;;;35.63;;
16039;SDS011;8124;48.634;8.120;2024-02-16T03:33:18;40.88;;;34.80;;
16039;SDS011;8124;48.634;8.120;2024-02-16T03:38:25;40.72;;;34.60;;
16039;SDS011;8124;48.634;8.120;2024-02-16T03:43:28;40.97;;;34.67;;
16039;SDS011;8124;48.634;8.120;2024-02-16T03:48:31;42.45;;;34.85;;
16039;SDS011;8124;48.634;8.120;2024-02-16T03:53:35;41.90;;;35.38;;
16039;SDS011;8124;48.634;8.120;2024-02-16T03:58:38;43.08;;;37.85;;
16039;SDS011;8124;48.634;8.120;2024-02-16T04:03:41;40.85;;;35.15;;
16039;SDS011;8124;48.634;8.120;2024-02-16T04:08:45;41.83;;;35.67;;
16039;SDS011;8124;48.634;8.120;2024-02-16T04:13:50;42.55;;;35.88;;
16039;SDS011;8124;48.634;8.120;2024-02-16T04:18:53;42.08;;;35.58;;
16039;SDS011;8124;48.634;8.120;2024-02-16T04:23:58;43.08;;;35.65;;
16039;SDS011;8124;48.634;8.120;2024-02-16T04:29:02;42.15;;;35.38;;
16039;SDS011;8124;48.634;8.120;2024-02-16T04:34:06;43.72;;;36.08;;
16039;SDS011;8124;48.634;8.120;2024-02-16T04:39:11;42.78;;;36.00;;
16039;SDS011;8124;48.634;8.120;2024-02-16T04:44:16;43.97;;;36.20;;
16039;SDS011;8124;48.634;8.120;2024-02-16T04:49:19;43.53;;;35.90;;
16039;SDS011;8124;48.634;8.120;2024-02-16T04:54:24;41.40;;;35.70;;
16039;SDS011;8124;48.634;8.120;2024-02-16T04:59:27;41.83;;;36.10;;
16039;SDS011;8124;48.634;8.120;2024-02-16T05:04:30;42.20;;;35.78;;
16039;SDS011;8124;48.634;8.120;2024-02-16T05:09:35;44.95;;;36.45;;
16039;SDS011;8124;48.634;8.120;2024-02-16T05:14:38;42.05;;;35.83;;
16039;SDS011;8124;48.634;8.120;2024-02-16T05:19:42;43.33;;;37.13;;
16039;SDS011;8124;48.634;8.120;2024-02-16T05:24:46;44.03;;;36.38;;
16039;SDS011;8124;48.634;8.120;2024-02-16T05:29:49;41.83;;;35.33;;
16039;SDS011;8124;48.634;8.120;2024-02-16T05:34:52;44.78;;;35.65;;
16039;SDS011;8124;48.634;8.120;2024-02-16T05:39:58;41.03;;;35.60;;
16039;SDS011;8124;48.634;8.120;2024-02-16T05:45:09;40.97;;;35.40;;
16039;SDS011;8124;48.634;8.120;2024-02-16T05:50:13;44.08;;;36.53;;
16039;SDS011;8124;48.634;8.120;2024-02-16T05:55:19;41.38;;;35.28;;
16039;SDS011;8124;48.634;8.120;2024-02-16T06:00:21;42.40;;;35.53;;
16039;SDS011;8124;48.634;8.120;2024-02-16T06:05:24;42.90;;;35.17;;
16039;SDS011;8124;48.634;8.120;2024-02-16T06:10:30;40.88;;;35.15;;
16039;SDS011;8124;48.634;8.120;2024-02-16T06:15:33;42.83;;;35.75;;
16039;SDS011;8124;48.634;8.120;2024-02-16T06:20:37;42.72;;;35.78;;
16039;SDS011;8124;48.634;8.120;2024-02-16T06:25:42;44.00;;;35.85;;
16039;SDS011;8124;48.634;8.120;2024-02-16T06:30:45;46.47;;;40.72;;
16039;SDS011;8124;48.634;8.120;2024-02-16T06:35:48;41.53;;;35.67;;
16039;SDS011;8124;48.634;8.120;2024-02-16T06:40:54;50.30;;;41.75;;
16039;SDS011;8124;48.634;8.120;2024-02-16T06:45:56;42.97;;;36.97;;
16039;SDS011;8124;48.634;8.120;2024-02-16T06:50:59;40.95;;;35.22;;
16039;SDS011;8124;48.634;8.120;2024-02-16T06:56:04;42.25;;;35.60;;
16039;SDS011;8124;48.634;8.120;2024-02-16T07:01:07;41.90;;;35.70;;
16039;SDS011;8124;48.634;8.120;2024-02-16T07:06:15;39.90;;;34.42;;
16039;SDS011;8124;48.634;8.120;2024-02-16T07:11:21;41.72;;;35.60;;
16039;SDS011;8124;48.634;8.120;2024-02-16T07:16:25;40.65;;;34.90;;
16039;SDS011;8124;48.634;8.120;2024-02-16T07:21:29;43.63;;;35.03;;
16039;SDS011;8124;48.634;8.120;2024-02-16T07:26:37;40.78;;;35.17;;
16039;SDS011;8124;48.634;8.120;2024-02-16T07:31:42;41.55;;;35.72;;
16039;SDS011;8124;48.634;8.120;2024-02-16T07:36:47;42.53;;;35.00;;
16039;SDS011;8124;48.634;8.120;2024-02-16T07:41:55;44.67;;;35.10;;
16039;SDS011;8124;48.634;8.120;2024-02-16T07:46:58;41.22;;;35.28;;
16039;SDS011;8124;48.634;8.120;2024-02-16T08:25:36;44.20;;;36.30;;
16039;SDS011;8124;48.634;8.120;2024-02-16T08:37:44;43.67;;;36.72;;
16039;SDS011;8124;48.634;8.120;2024-02-16T08:42:49;45.25;;;37.78;;
16039;SDS011;8124;48.634;8.120;2024-02-16T08:47:54;44.15;;;37.33;;
16039;SDS011;8124;48.634;8.120;2024-02-16T08:52:58;44.83;;;36.88;;
16039;SDS011;8124;48.634;8.120;2024-02-16T08:58:13;43.03;;;36.85;;
16039;SDS011;8124;48.634;8.120;2024-02-16T09:04:06;45.55;;;37.45;;
16039;SDS011;8124;48.634;8.120;2024-02-16T09:09:12;43.70;;;35.95;;
16039;SDS011;8124;48.634;8.120;2024-02-16T09:14:25;45.45;;;36.95;;
16039;SDS011;8124;48.634;8.120;2024-02-16T09:19:28;45.72;;;37.35;;
16039;SDS011;8124;48.634;8.120;2024-02-16T09:24:44;50.33;;;40.00;;
16039;SDS011;8124;48.634;8.120;2024-02-16T09:29:53;49.00;;;38.42;;
16039;SDS011;8124;48.634;8.120;2024-02-16T09:34:56;45.08;;;36.25;;
16039;SDS011;8124;48.634;8.120;2024-02-16T09:40:11;48.65;;;36.70;;
16039;SDS011;8124;48.634;8.120;2024-02-16T09:45:19;42.85;;;35.88;;
16039;SDS011;8124;48.634;8.120;2024-02-16T09:50:23;42.97;;;36.90;;
16039;SDS011;8124;48.634;8.120;2024-02-16T09:55:29;42.53;;;36.50;;
16039;SDS011;8124;48.634;8.120;2024-02-16T10:00:36;44.17;;;36.20;;
16039;SDS011;8124;48.634;8.120;2024-02-16T10:05:40;43.85;;;35.45;;
16039;SDS011;8124;48.634;8.120;2024-02-16T10:10:44;42.22;;;35.78;;
16039;SDS011;8124;48.634;8.120;2024-02-16T10:15:48;44.00;;;35.55;;
16039;SDS011;8124;48.634;8.120;2024-02-16T10:20:51;42.50;;;36.33;;
16039;SDS011;8124;48.634;8.120;2024-02-16T10:25:54;42.63;;;36.63;;
16039;SDS011;8124;48.634;8.120;2024-02-16T10:30:59;47.65;;;36.35;;
16039;SDS011;8124;48.634;8.120;2024-02-16T10:36:03;42.95;;;37.67;;
16039;SDS011;8124;48.634;8.120;2024-02-16T10:41:09;45.60;;;36.67;;
16039;SDS011;8124;48.634;8.120;2024-02-16T10:46:14;46.33;;;37.15;;
16039;SDS011;8124;48.634;8.120;2024-02-16T10:51:19;45.47;;;37.58;;
16039;SDS011;8124;48.634;8.120;2024-02-16T10:56:27;43.17;;;36.47;;
16039;SDS011;8124;48.634;8.120;2024-02-16T11:01:38;44.28;;;36.45;;
16039;SDS011;8124;48.634;8.120;2024-02-16T11:06:45;43.17;;;36.70;;
16039;SDS011;8124;48.634;8.120;2024-02-16T11:11:51;45.80;;;36.58;;
16039;SDS011;8124;48.634;8.120;2024-02-16T11:16:56;43.13;;;36.55;;
16039;SDS011;8124;48.634;8.120;2024-02-16T11:22:02;46.22;;;37.42;;
16039;SDS011;8124;48.634;8.120;2024-02-16T11:27:11;44.35;;;37.03;;
16039;SDS011;8124;48.634;8.120;2024-02-16T11:32:19;45.33;;;37.20;;
16039;SDS011;8124;48.634;8.120;2024-02-16T11:37:22;44.72;;;36.78;;
16039;SDS011;8124;48.634;8.120;2024-02-16T11:42:26;43.85;;;37.20;;
16039;SDS011;8124;48.634;8.120;2024-02-16T11:47:30;44.67;;;36.67;;
16039;SDS011;8124;48.634;8.120;2024-02-16T11:52:33;43.80;;;37.00;;
16039;SDS011;8124;48.634;8.120;2024-02-16T11:57:37;49.47;;;36.65;;
16039;SDS011;8124;48.634;8.120;2024-02-16T12:02:42;46.33;;;37.33;;
16039;SDS011;8124;48.634;8.120;2024-02-16T12:07:45;45.55;;;37.95;;
16039;SDS011;8124;48.634;8.120;2024-02-16T12:12:49;44.78;;;37.15;;
16039;SDS011;8124;48.634;8.120;2024-02-16T12:17:59;44.25;;;36.90;;
16039;SDS011;8124;48.634;8.120;2024-02-16T12:23:12;47.00;;;37.15;;
16039;SDS011;8124;48.634;8.120;2024-02-16T12:28:16;44.20;;;37.22;;
16039;SDS011;8124;48.634;8.120;2024-02-16T12:33:21;46.58;;;36.72;;
16039;SDS011;8124;48.634;8.120;2024-02-16T12:38:24;48.47;;;37.25;;
16039;SDS011;8124;48.634;8.120;2024-02-16T12:43:27;43.72;;;36.65;;
16039;SDS011;8124;48.634;8.120;2024-02-16T12:48:31;44.38;;;36.83;;
16039;SDS011;8124;48.634;8.120;2024-02-16T12:53:34;44.72;;;36.92;;
16039;SDS011;8124;48.634;8.120;2024-02-16T12:58:41;45.03;;;39.47;;
16039;SDS011;8124;48.634;8.120;2024-02-16T13:03:46;45.45;;;37.80;;
16039;SDS011;8124;48.634;8.120;2024-02-16T13:08:51;45.55;;;37.00;;
16039;SDS011;8124;48.634;8.120;2024-02-16T13:13:55;45.60;;;37.30;;
16039;SDS011;8124;48.634;8.120;2024-02-16T13:19:01;47.70;;;37.30;;
16039;SDS011;8124;48.634;8.120;2024-02-16T13:24:05;44.45;;;37.47;;
16039;SDS011;8124;48.634;8.120;2024-02-16T13:29:10;44.53;;;37.20;;
16039;SDS011;8124;48.634;8.120;2024-02-16T13:34:16;45.50;;;37.40;;
16039;SDS011;8124;48.634;8.120;2024-02-16T13:39:19;46.03;;;37.42;;
16039;SDS011;8124;48.634;8.120;2024-02-16T13:44:23;46.92;;;37.33;;
16039;SDS011;8124;48.634;8.120;2024-02-16T13:49:28;45.00;;;36.92;;
16039;SDS011;8124;48.634;8.120;2024-02-16T13:54:31;44.97;;;37.08;;
16039;SDS011;8124;48.634;8.120;2024-02-16T13:59:34;42.78;;;36.53;;
16039;SDS011;8124;48.634;8.120;2024-02-16T14:04:38;43.95;;;36.95;;
16039;SDS011;8124;48.634;8.120;2024-02-16T14:09:42;47.58;;;37.10;;
16039;SDS011;8124;48.634;8.120;2024-02-16T14:14:45;47.03;;;36.97;;
16039;SDS011;8124;48.634;8.120;2024-02-16T14:19:50;44.05;;;37.13;;
16039;SDS011;8124;48.634;8.120;2024-02-16T14:24:54;44.47;;;36.75;;
16039;SDS011;8124;48.634;8.120;2024-02-16T14:29:58;44.60;;;36.70;;
16039;SDS011;8124;48.634;8.120;2024-02-16T14:35:03;43.38;;;36.67;;
16039;SDS011;8124;48.634;8.120;2024-02-16T14:40:07;44.70;;;37.60;;
16039;SDS011;8124;48.634;8.120;2024-02-16T14:45:12;45.15;;;36.35;;
16039;SDS011;8124;48.634;8.120;2024-02-16T14:50:23;43.17;;;36.78;;
16039;SDS011;8124;48.634;8.120;2024-02-16T14:55:26;50.33;;;37.08;;
16039;SDS011;8124;48.634;8.120;2024-02-16T15:00:29;42.75;;;36.45;;
16039;SDS011;8124;48.634;8.120;2024-02-16T15:05:33;43.83;;;36.60;;
16039;SDS011;8124;48.634;8.120;2024-02-16T15:10:36;46.80;;;36.38;;
16039;SDS011;8124;48.634;8.120;2024-02-16T15:15:39;45.92;;;37.55;;
16039;SDS011;8124;48.634;8.120;2024-02-16T15:20:44;43.22;;;36.67;;
16039;SDS011;8124;48.634;8.120;2024-02-16T15:25:47;43.63;;;36.75;;
16039;SDS011;8124;48.634;8.120;2024-02-16T15:30:50;47.63;;;37.08;;
16039;SDS011;8124;48.634;8.120;2024-02-16T15:35:55;48.30;;;38.60;;
16039;SDS011;8124;48.634;8.120;2024-02-16T15:40:58;47.60;;;37.63;;
16039;SDS011;8124;48.634;8.120;2024-02-16T15:46:01;46.78;;;38.00;;
16039;SDS011;8124;48.634;8.120;2024-02-16T15:51:28;43.65;;;36.90;;
16039;SDS011;8124;48.634;8.120;2024-02-16T15:56:31;45.67;;;37.90;;
16039;SDS011;8124;48.634;8.120;2024-02-16T16:01:34;47.67;;;37.33;;
16039;SDS011;8124;48.634;8.120;2024-02-16T16:06:39;47.90;;;37.58;;
16039;SDS011;8124;48.634;8.120;2024-02-16T16:11:42;43.13;;;36.83;;
16039;SDS011;8124;48.634;8.120;2024-02-16T16:16:46;46.60;;;37.15;;
16039;SDS011;8124;48.634;8.120;2024-02-16T16:21:55;43.83;;;37.28;;
16039;SDS011;8124;48.634;8.120;2024-02-16T16:26:58;44.67;;;36.67;;
16039;SDS011;8124;48.634;8.120;2024-02-16T16:32:01;44.13;;;37.45;;
16039;SDS011;8124;48.634;8.120;2024-02-16T16:37:08;44.08;;;36.47;;
16039;SDS011;8124;48.634;8.120;2024-02-16T16:42:11;43.65;;;36.40;;
16039;SDS011;8124;48.634;8.120;2024-02-16T16:47:15;48.42;;;36.58;;
16039;SDS011;8124;48.634;8.120;2024-02-16T16:52:19;44.90;;;37.25;;
16039;SDS011;8124;48.634;8.120;2024-02-16T16:57:22;43.13;;;36.65;;
16039;SDS011;8124;48.634;8.120;2024-02-16T17:02:25;42.53;;;36.30;;
16039;SDS011;8124;48.634;8.120;2024-02-16T17:07:30;43.70;;;36.88;;
16039;SDS011;8124;48.634;8.120;2024-02-16T17:12:33;44.85;;;36.28;;
16039;SDS011;8124;48.634;8.120;2024-02-16T17:17:36;43.45;;;36.67;;
16039;SDS011;8124;48.634;8.120;2024-02-16T17:22:43;43.28;;;36.55;;
16039;SDS011;8124;48.634;8.120;2024-02-16T17:27:46;44.20;;;36.60;;
16039;SDS011;8124;48.634;8.120;2024-02-16T17:32:50;45.50;;;36.83;;
16039;SDS011;8124;48.634;8.120;2024-02-16T17:37:54;43.05;;;36.95;;
16039;SDS011;8124;48.634;8.120;2024-02-16T17:42:57;45.53;;;36.60;;
16039;SDS011;8124;48.634;8.120;2024-02-16T17:48:01;44.38;;;36.95;;
16039;SDS011;8124;48.634;8.120;2024-02-16T17:53:05;44.22;;;36.58;;
16039;SDS011;8124;48.634;8.120;2024-02-16T17:58:08;45.13;;;37.03;;
16039;SDS011;8124;48.634;8.120;2024-02-16T18:03:12;44.33;;;37.38;;
16039;SDS011;8124;48.634;8.120;2024-02-16T18:08:16;46.17;;;37.78;;
16039;SDS011;8124;48.634;8.120;2024-02-16T18:13:19;47.60;;;38.33;;
16039;SDS011;8124;48.634;8.120;2024-02-16T18:18:22;46.85;;;37.83;;
16039;SDS011;8124;48.634;8.120;2024-02-16T18:23:29;47.92;;;38.45;;
16039;SDS011;8124;48.634;8.120;2024-02-16T18:28:32;43.33;;;37.05;;
16039;SDS011;8124;48.634;8.120;2024-02-16T18:33:46;50.10;;;39.33;;
16039;SDS011;8124;48.634;8.120;2024-02-16T18:38:50;46.45;;;38.75;;
16039;SDS011;8124;48.634;8.120;2024-02-16T18:43:53;44.42;;;37.47;;
16039;SDS011;8124;48.634;8.120;2024-02-16T18:48:56;45.97;;;38.00;;
16039;SDS011;8124;48.634;8.120;2024-02-16T18:54:01;48.90;;;39.55;;
16039;SDS011;8124;48.634;8.120;2024-02-16T18:59:06;49.85;;;39.42;;
16039;SDS011;8124;48.634;8.120;2024-02-16T19:04:10;47.40;;;39.25;;
16039;SDS011;8124;48.634;8.120;2024-02-16T19:09:15;49.75;;;38.85;;
16039;SDS011;8124;48.634;8.120;2024-02-16T19:14:18;48.00;;;38.40;;
16039;SDS011;8124;48.634;8.120;2024-02-16T19:19:25;44.97;;;37.85;;
16039;SDS011;8124;48.634;8.120;2024-02-16T19:24:30;46.55;;;38.05;;
16039;SDS011;8124;48.634;8.120;2024-02-16T19:29:44;44.92;;;37.83;;
16039;SDS011;8124;48.634;8.120;2024-02-16T19:34:47;45.78;;;37.63;;
16039;SDS011;8124;48.634;8.120;2024-02-16T19:39:51;47.42;;;38.70;;
16039;SDS011;8124;48.634;8.120;2024-02-16T19:44:54;46.78;;;38.47;;
16039;SDS011;8124;48.634;8.120;2024-02-16T19:49:58;46.08;;;38.60;;
16039;SDS011;8124;48.634;8.120;2024-02-16T19:55:02;46.85;;;37.80;;
16039;SDS011;8124;48.634;8.120;2024-02-16T20:00:06;44.92;;;37.78;;
16039;SDS011;8124;48.634;8.120;2024-02-16T20:05:11;43.72;;;37.22;;
16039;SDS011;8124;48.634;8.120;2024-02-16T20:10:20;44.05;;;37.20;;
16039;SDS011;8124;48.634;8.120;2024-02-16T20:15:23;43.50;;;36.90;;
16039;SDS011;8124;48.634;8.120;2024-02-16T20:20:30;45.38;;;37.10;;
16039;SDS011;8124;48.634;8.120;2024-02-16T20:25:34;43.10;;;36.38;;
16039;SDS011;8124;48.634;8.120;2024-02-16T20:30:37;43.08;;;36.65;;
16039;SDS011;8124;48.634;8.120;2024-02-16T20:35:40;46.25;;;36.33;;
16039;SDS011;8124;48.634;8.120;2024-02-16T20:40:45;43.28;;;36.15;;
16039;SDS011;8124;48.634;8.120;2024-02-16T20:45:48;43.95;;;36.55;;
16039;SDS011;8124;48.634;8.120;2024-02-16T20:50:51;42.80;;;36.45;;
16039;SDS011;8124;48.634;8.120;2024-02-16T20:55:55;45.30;;;36.95;;
16039;SDS011;8124;48.634;8.120;2024-02-16T21:00:58;42.63;;;36.10;;
16039;SDS011;8124;48.634;8.120;2024-02-16T21:06:01;42.83;;;37.40;;
16039;SDS011;8124;48.634;8.120;2024-02-16T21:11:05;43.33;;;36.50;;
16039;SDS011;8124;48.634;8.120;2024-02-16T21:16:09;44.22;;;36.58;;
16039;SDS011;8124;48.634;8.120;2024-02-16T21:21:13;42.92;;;36.53;;
16039;SDS011;8124;48.634;8.120;2024-02-16T21:26:17;42.42;;;36.13;;
16039;SDS011;8124;48.634;8.120;2024-02-16T21:31:20;44.50;;;36.50;;
16039;SDS011;8124;48.634;8.120;2024-02-16T21:36:23;46.10;;;36.22;;
16039;SDS011;8124;48.634;8.120;2024-02-16T21:41:28;42.97;;;36.20;;
16039;SDS011;8124;48.634;8.120;2024-02-16T21:46:33;42.60;;;36.35;;
16039;SDS011;8124;48.634;8.120;2024-02-16T21:51:37;42.42;;;35.97;;
16039;SDS011;8124;48.634;8.120;2024-02-16T21:56:43;42.83;;;35.78;;
16039;SDS011;8124;48.634;8.120;2024-02-16T22:01:46;44.72;;;36.15;;
16039;SDS011;8124;48.634;8.120;2024-02-16T22:06:50;42.25;;;36.25;;
16039;SDS011;8124;48.634;8.120;2024-02-16T22:11:56;46.67;;;36.10;;
16039;SDS011;8124;48.634;8.120;2024-02-16T22:17:00;41.75;;;35.45;;
16039;SDS011;8124;48.634;8.120;2024-02-16T22:22:04;41.72;;;35.90;;
16039;SDS011;8124;48.634;8.120;2024-02-16T22:27:09;43.15;;;35.30;;
16039;SDS011;8124;48.634;8.120;2024-02-16T22:32:12;41.60;;;35.72;;
16039;SDS011;8124;48.634;8.120;2024-02-16T22:37:18;41.08;;;35.22;;
16039;SDS011;8124;48.634;8.120;2024-02-16T22:42:23;41.42;;;35.45;;
16039;SDS011;8124;48.634;8.120;2024-02-16T22:47:26;42.20;;;35.53;;
16039;SDS011;8124;48.634;8.120;2024-02-16T22:52:29;41.90;;;35.58;;
16039;SDS011;8124;48.634;8.120;2024-02-16T22:57:33;41.00;;;35.25;;
16039;SDS011;8124;48.634;8.120;2024-02-16T23:02:36;40.80;;;35.33;;
16039;SDS011;8124;48.634;8.120;2024-02-16T23:07:39;40.75;;;34.85;;
16039;SDS011;8124;48.634;8.120;2024-02-16T23:12:44;40.88;;;35.25;;
16039;SDS011;8124;48.634;8.120;2024-02-16T23:17:48;41.17;;;35.15;;
16039;SDS011;8124;48.634;8.120;2024-02-16T23:22:58;40.58;;;35.20;;
16039;SDS011;8124;48.634;8.120;2024-02-16T23:28:03;40.45;;;34.90;;
16039;SDS011;8124;48.634;8.120;2024-02-16T23:33:07;41.63;;;35.35;;
16039;SDS011;8124;48.634;8.120;2024-02-16T23:38:12;41.45;;;35.83;;
16039;SDS011;8124;48.634;8.120;2024-02-16T23:43:17;41.25;;;35.08;;
16039;SDS011;8124;48.634;8.120;2024-02-16T23:48:20;40.58;;;35.17;;
16039;SDS011;8124;48.634;8.120;2024-02-16T23:53:23;41.10;;;35.67;;
16039;SDS011;8124;48.634;8.120;2024-02-16T23:58:28;40.60;;;35.00;;
